Hakon Sorloth

Recruteur en chef - Lillestrom
22 Févr 2028
Mardi
Processus

Personnalité

Adaptabilité (4) Ambition (8) Controverse (9) Loyauté (18) Pression (14) Professionnalisme (5) Sportivité (1) Tempérament (13)

Profil

Style d'entraînement Démocratique
Diplôme National B
Détermination 6
Gestion des joueurs 9
Motivation 8
Discipline 10
Satisfaction professionnelle
100%
Fatigue
0%
Rôle Recruteur en chef
Salaire 59.4K p/s
Contrat 14.03.2028

Performance

Comportement Bon
Efficacité de l'entraînement
33%
Développement des joueurs
40%
Prévention des blessures
40%
Mise en place tactique
35%

Événements récents

Négociation de contrat entamée maintenant
A participé à une réunion de recrutement maintenant
A participé à une réunion de recrutement maintenant
A participé à une réunion de recrutement maintenant
Négociation de contrat entamée 7j
Négociation de contrat entamée 7j
Négociation de contrat entamée 7j
Négociation de contrat entamée 7j

Suivi en cours

81
Joueur Club Statut Capacité Confiance Observé Dernière observation Dernier vote
Bradley Phiri Gornik Zabrze Négociation 112 / 112 66% 1 01.02.2028 Approuver
Shota Shekiladze Akhmat Grozny Négociation 110 / 110 66% 1 16.07.2027 Approuver
Aljoša Matko Viborg Négociation 117 / 117 66% 1 16.07.2027 Approuver
Keagan Mothiba Altach Négociation 112 / 116 66% 1 16.07.2027 Approuver
Aleksander van der Spa Stromsgodset Actif 96 / 95 62% 1 16.07.2027 Approuver
Othmane Maamma Watford Actif 121 / 131 40% 1 20.04.2027 -
Leo Castledine Middlesbrough Actif 134 / 134 40% 1 15.04.2027 -
David Ozoh Derby County Actif 123 / 124 40% 1 15.04.2027 -
Matías Gómez Granada Actif 118 / 124 40% 2 14.04.2027 -
Rocco Vata Watford Actif 119 / 123 40% 1 12.04.2027 -
Kamarni Ryan Burton Albion Actif 88 / 96 40% 1 12.04.2027 -
Christ Inao Oulaï Fiorentina Actif 125 / 133 40% 1 11.04.2027 -
André Miranda Porto Actif 100 / 106 40% 1 22.03.2027 -
Federico Serra Arezzo Actif 94 / 93 40% 1 02.03.2027 -
Riley Owen Trento Actif 103 / 108 40% 1 08.02.2027 -
Keagan Tau Ajax Cape Town Actif 96 / 98 40% 1 08.02.2027 -
Dmitry Tsypchenko Torpedo Moscow Actif 106 / 101 40% 2 31.01.2027 -
José Martínes CSKA 1948 Actif 110 / 111 40% 2 31.01.2027 -
Mikhail Ignatov Sochi Actif 126 / 105 40% 1 29.01.2027 -
Diamanka Senghor Mosta Actif 98 / 96 40% 1 27.01.2027 -
Jacques Siwe Rubin Actif 113 / 115 40% 2 26.01.2027 -
Nikolay Zlatev Cherno More Actif 97 / 102 40% 1 25.01.2027 -
Bongani Mothiba SuperSport United Actif 91 / 76 40% 3 24.01.2027 -
Williams Manyama SuperSport United Actif 106 / 114 40% 1 24.01.2027 -
Ruben van Bommel Ferencvaros Actif 125 / 133 40% 2 21.01.2027 -
Leandro Godoy CSKA Sofia Actif 107 / 112 40% 5 20.01.2027 -
Thalente Mbatha Orlando Pirates Actif 130 / 109 40% 1 20.01.2027 -
Nathan Ordaz Metalist Actif 102 / 105 40% 1 19.01.2027 -
Jorge Padilla Cherno More Actif 109 / 110 40% 1 16.01.2027 -
Etiosa Ighodaro Kaizer Chiefs Actif 98 / 103 40% 3 15.01.2027 -
Peter Christiansen Viking Actif 114 / 125 40% 1 15.01.2027 -
Emil Ceïde Rosenborg Actif 122 / 118 40% 1 14.01.2027 -
Sebastián Arce Rodina Actif 124 / 116 40% 1 13.01.2027 -
Themba Ngcobo SuperSport United Actif 127 / 111 40% 3 10.01.2027 Observer
Yaroslav Gladyshev Dinamo Moscow Actif 131 / 114 40% 4 10.01.2027 -
Lechi Sadulaev Akhmat Grozny Actif 125 / 119 40% 1 10.01.2027 -
Olakunle Olusegun Rostov Actif 138 / 123 40% 1 10.01.2027 -
Agustín Módica Gimnasia y Esgrima Actif 124 / 125 40% 2 08.01.2027 -
Kenan Dervišagić Floriana Actif 95 / 94 40% 1 08.01.2027 -
Marcelo Allende Mamelodi Sundowns Actif 124 / 134 40% 2 07.01.2027 -
Siyanda Ndlovu Bloemfontein Celtic Actif 130 / 115 40% 1 05.01.2027 -
Mohammed Yahaya Great Olympics Actif 91 / 90 40% 1 02.01.2027 -
Ramiro Ruiz Rodríguez Atlético Tucumán Actif 122 / 128 40% 1 02.01.2027 -
Yago Santiago Racing Santander Actif 131 / 118 40% 2 31.12.2026 -
Ieltsin Camões Tromso Actif 116 / 115 40% 1 31.12.2026 -
Evidence Makgopa Orlando Pirates Actif 101 / 114 40% 4 28.12.2026 -
Magomed Nasibov Pobeda Actif 92 / 78 40% 1 24.12.2026 -
Mduduzi Shabalala Kaizer Chiefs Actif 99 / 119 40% 1 22.12.2026 -
Dmitry Pestryakov Dinamo Moscow Actif 116 / 108 40% 1 21.12.2026 -
Isaac Essien WAFA Actif 93 / 95 40% 2 18.12.2026 -
Brayan León Mamelodi Sundowns Actif 115 / 120 40% 2 17.12.2026 -
Yeangel Montero Naxxar Lions Actif 113 / 99 40% 1 15.12.2026 -
Dávid Ďuriš Rosenborg Actif 122 / 125 40% 1 14.12.2026 -
Mandla Mahlangu Ajax Cape Town Actif 93 / 98 40% 2 12.12.2026 Plus d'infos
Suleiman Camara Slovan Bratislava Actif 132 / 116 40% 2 12.12.2026 -
Martin Sekulić Ural Actif 118 / 102 40% 2 11.12.2026 -
Aidomo Emakhu Oxford United Actif 124 / 125 40% 2 09.12.2026 -
Ammar Ramadan DAC Dunajska Streda Actif 132 / 125 40% 3 08.12.2026 -
Vyacheslav Grulev Nizhniy Novgorod Actif 124 / 112 40% 1 08.12.2026 -
Slobodan Tedić Akron Actif 99 / 103 40% 1 06.12.2026 -
Tshepang Moremi Orlando Pirates Actif 127 / 105 40% 1 06.12.2026 Plus d'infos
Denzel Jubitana Neftchi Actif 106 / 113 40% 2 03.12.2026 -
Jonathan Gyan Liberty Professionals Actif 110 / 93 40% 1 22.11.2026 -
Daniel Karlsbakk Sarpsborg 08 Actif 119 / 126 40% 1 22.11.2026 -
Bongani Modiba Black Aces Actif 108 / 120 40% 1 20.11.2026 -
Albert Rusnak FK Senica Actif 95 / 93 40% 2 19.11.2026 -
Elias Hoff Melkersen Stromsgodset Actif 111 / 121 40% 2 17.11.2026 -
Krisztofer Horváth Ujpest Actif 122 / 118 40% 1 15.11.2026 -
Andrei Cordea CFR Cluj Actif 121 / 128 40% 1 13.11.2026 -
Daniel Kelly Oxford United Actif 116 / 123 40% 1 11.11.2026 -
Alexander Warneryd Tromso Actif 116 / 115 40% 1 11.11.2026 -
Kwame Opoku Asante Kotoko Actif 93 / 99 40% 1 10.11.2026 -
Bismark Asante Ashanti Gold Actif 102 / 96 40% 1 09.11.2026 -
Vladimir Khubulov Dinamo Makhachkala Actif 91 / 99 40% 1 07.11.2026 -
João Simões Sporting CP Actif 118 / 139 40% 1 10.09.2026 -
Mauro Carrizo Atlético Tucumán Actif 92 / 109 40% 1 09.09.2026 -
Filip Lissah Swansea City Actif 101 / 121 40% 1 09.09.2026 -
Filip Loftesnes-Bjune Sandefjord Actif 90 / 105 40% 1 08.09.2026 -
Edvard Pettersen Sandefjord Actif 91 / 105 40% 1 08.09.2026 -
Matías Magdaleno Estudiantes Actif 113 / 96 40% 1 07.09.2026 -
Markus Naglestad HIFK Actif 111 / 103 40% 1 03.08.2026 -